createdAt,value
2018-10-16T00:01:27.491Z,14.81
2018-10-16T00:03:56.647Z,14.84
2018-10-16T00:06:25.946Z,14.96
2018-10-16T00:08:55.085Z,14.80
2018-10-16T00:11:24.230Z,14.75
2018-10-16T00:13:53.382Z,14.87
2018-10-16T00:16:22.536Z,14.84
2018-10-16T00:18:51.915Z,14.87
2018-10-16T00:21:21.926Z,14.82
2018-10-16T00:23:52.187Z,14.74
2018-10-16T00:26:21.978Z,14.76
2018-10-16T00:28:51.882Z,14.75
2018-10-16T00:31:21.882Z,14.81
2018-10-16T00:33:51.914Z,14.61
2018-10-16T00:36:21.956Z,14.65
2018-10-16T00:38:51.966Z,14.64
2018-10-16T00:41:21.978Z,14.71
2018-10-16T00:43:51.985Z,14.67
2018-10-16T00:46:22.032Z,14.71
2018-10-16T00:48:52.049Z,14.76
2018-10-16T00:51:21.975Z,14.71
2018-10-16T00:53:51.964Z,14.61
2018-10-16T00:56:21.991Z,14.61
2018-10-16T00:58:52.162Z,14.63
2018-10-16T01:01:27.266Z,14.56
2018-10-16T01:03:56.436Z,14.61
2018-10-16T01:06:25.787Z,14.67
2018-10-16T01:08:55.596Z,14.59
2018-10-16T01:11:25.255Z,14.61
2018-10-16T01:13:56.035Z,14.62
2018-10-16T01:16:25.278Z,14.58
2018-10-16T01:18:54.569Z,14.58
2018-10-16T01:21:23.743Z,14.45
2018-10-16T01:23:53.018Z,14.38
2018-10-16T01:26:22.164Z,14.43
2018-10-16T01:28:56.627Z,14.50
2018-10-16T01:31:25.791Z,14.47
2018-10-16T01:33:54.947Z,14.50
2018-10-16T01:36:24.162Z,14.48
2018-10-16T01:38:53.307Z,14.41
2018-10-16T01:41:22.459Z,14.47
2018-10-16T01:43:52.126Z,14.43
2018-10-16T01:46:22.160Z,14.32
2018-10-16T01:48:52.035Z,14.27
2018-10-16T01:51:22.292Z,14.29
2018-10-16T01:53:52.143Z,14.09
2018-10-16T01:56:22.154Z,14.11
2018-10-16T01:58:52.122Z,14.08
2018-10-16T02:01:22.131Z,14.08
2018-10-16T02:03:52.155Z,14.00
2018-10-16T02:06:22.460Z,13.86
2018-10-16T02:08:52.161Z,13.92
2018-10-16T02:11:22.097Z,13.94
2018-10-16T02:13:52.143Z,13.84
2018-10-16T02:16:22.267Z,13.90
2018-10-16T02:18:52.164Z,13.93
2018-10-16T02:21:22.156Z,13.92
2018-10-16T02:23:52.151Z,14.00
2018-10-16T02:26:22.183Z,13.99
2018-10-16T02:28:52.173Z,13.94
2018-10-16T02:31:22.123Z,14.00
2018-10-16T02:33:52.131Z,13.86
2018-10-16T02:36:22.215Z,13.96
2018-10-16T02:38:52.178Z,13.91
2018-10-16T02:41:22.212Z,13.89
2018-10-16T02:43:51.611Z,13.91
2018-10-16T02:46:20.755Z,13.87
2018-10-16T02:48:49.920Z,13.94
2018-10-16T02:51:19.067Z,13.93
2018-10-16T02:53:48.221Z,13.93
2018-10-16T02:56:17.366Z,13.89
2018-10-16T02:58:46.544Z,13.85
2018-10-16T03:01:15.711Z,13.87
2018-10-16T03:03:44.851Z,13.91
2018-10-16T03:06:14.006Z,13.82
2018-10-16T03:08:43.223Z,13.78
2018-10-16T03:11:12.363Z,13.88
2018-10-16T03:13:41.579Z,13.82
2018-10-16T03:16:11.443Z,13.82
2018-10-16T03:18:40.591Z,13.85
2018-10-16T03:21:09.755Z,13.87
2018-10-16T03:23:38.926Z,13.87
2018-10-16T03:26:08.110Z,13.93
2018-10-16T03:28:37.265Z,13.90
2018-10-16T03:31:06.598Z,13.89
2018-10-16T03:33:35.787Z,13.94
2018-10-16T03:36:05.627Z,13.93
2018-10-16T03:38:34.877Z,13.80
2018-10-16T03:41:04.030Z,13.77
2018-10-16T03:43:34.931Z,13.78
2018-10-16T03:46:04.143Z,13.88
2018-10-16T03:48:33.313Z,13.95
2018-10-16T03:51:09.237Z,13.84
2018-10-16T03:53:38.433Z,13.80
2018-10-16T03:56:07.840Z,13.87
2018-10-16T03:58:37.019Z,13.84
2018-10-16T04:01:06.482Z,13.80
2018-10-16T04:03:36.945Z,13.83
2018-10-16T04:06:06.360Z,13.88
2018-10-16T04:08:35.502Z,13.80
2018-10-16T04:11:04.755Z,13.74
2018-10-16T04:13:40.635Z,13.64
2018-10-16T04:16:09.795Z,13.65
2018-10-16T04:18:39.195Z,13.71
2018-10-16T04:21:08.794Z,13.66
2018-10-16T04:23:38.588Z,13.61
2018-10-16T04:26:08.414Z,13.47
2018-10-16T04:28:37.648Z,13.43
2018-10-16T04:31:07.442Z,13.36
2018-10-16T04:33:36.622Z,13.38
2018-10-16T04:36:06.011Z,13.37
2018-10-16T04:38:35.179Z,13.29
2018-10-16T04:41:04.647Z,13.33
2018-10-16T04:43:33.845Z,13.31
2018-10-16T04:46:03.215Z,13.13
2018-10-16T04:48:32.446Z,13.05
2018-10-16T04:51:01.611Z,13.11
2018-10-16T04:53:30.809Z,13.14
2018-10-16T04:55:59.963Z,13.21
2018-10-16T04:58:29.124Z,13.24
2018-10-16T05:00:58.275Z,13.21
2018-10-16T05:03:27.522Z,13.17
2018-10-16T05:05:56.679Z,13.14
2018-10-16T05:08:25.831Z,13.17
2018-10-16T05:10:55.038Z,13.26
2018-10-16T05:13:24.199Z,13.24
2018-10-16T05:15:53.343Z,13.18
2018-10-16T05:18:22.524Z,13.15
2018-10-16T05:20:52.543Z,13.12
2018-10-16T05:23:22.499Z,13.18
2018-10-16T05:25:52.569Z,13.20
2018-10-16T05:28:22.424Z,13.27
2018-10-16T05:30:52.684Z,13.21
2018-10-16T05:33:22.564Z,13.06
2018-10-16T05:35:52.559Z,13.11
2018-10-16T05:38:22.511Z,13.12
2018-10-16T05:40:52.799Z,13.13
2018-10-16T05:43:22.420Z,13.12
2018-10-16T05:45:52.563Z,13.11
2018-10-16T05:48:22.639Z,13.04
2018-10-16T05:50:52.556Z,13.06
2018-10-16T05:53:22.590Z,13.05
2018-10-16T05:56:00.483Z,13.15
2018-10-16T05:58:29.667Z,13.13
2018-10-16T06:00:58.864Z,13.11
2018-10-16T06:03:28.079Z,13.08
2018-10-16T06:05:57.230Z,13.11
2018-10-16T06:08:26.441Z,13.06
2018-10-16T06:10:55.629Z,13.05
2018-10-16T06:13:24.778Z,13.06
2018-10-16T06:15:53.944Z,13.15
2018-10-16T06:18:23.382Z,13.04
2018-10-16T06:20:53.308Z,13.12
2018-10-16T06:23:23.312Z,13.07
2018-10-16T06:25:53.536Z,13.09
2018-10-16T06:28:26.596Z,13.10
2018-10-16T06:30:55.768Z,13.16
2018-10-16T06:33:26.473Z,13.14
2018-10-16T06:35:55.620Z,13.05
2018-10-16T06:38:24.777Z,13.13
2018-10-16T06:40:54.146Z,13.11
2018-10-16T06:43:23.447Z,13.09
2018-10-16T06:45:54.164Z,13.19
2018-10-16T06:48:23.757Z,13.21
2018-10-16T06:50:53.566Z,13.15
2018-10-16T06:53:23.479Z,13.03
2018-10-16T06:55:53.554Z,13.14
2018-10-16T06:58:23.562Z,13.20
2018-10-16T07:00:53.545Z,13.30
2018-10-16T07:03:23.431Z,13.41
2018-10-16T07:05:53.519Z,13.46
2018-10-16T07:08:23.522Z,13.60
2018-10-16T07:10:53.547Z,13.70
2018-10-16T07:13:23.588Z,13.61
2018-10-16T07:15:53.500Z,13.63
2018-10-16T07:18:23.467Z,13.79
2018-10-16T07:20:53.564Z,13.98
2018-10-16T07:23:22.779Z,13.95
2018-10-16T07:25:51.858Z,14.01
2018-10-16T07:28:21.002Z,14.05
2018-10-16T07:30:50.158Z,14.19
2018-10-16T07:33:19.309Z,14.30
2018-10-16T07:35:48.503Z,14.34
2018-10-16T07:38:17.713Z,14.37
2018-10-16T07:40:46.818Z,14.58
2018-10-16T07:43:15.954Z,14.76
2018-10-16T07:45:45.151Z,14.97
2018-10-16T07:48:14.333Z,15.04
2018-10-16T07:50:43.670Z,15.17
2018-10-16T07:53:12.826Z,15.29
2018-10-16T07:55:41.975Z,15.40
2018-10-16T07:58:11.110Z,15.53
2018-10-16T08:00:40.276Z,15.73
2018-10-16T08:03:09.437Z,15.84
2018-10-16T08:05:38.575Z,15.92
2018-10-16T08:08:07.719Z,16.15
2018-10-16T08:10:36.896Z,16.28
2018-10-16T08:13:06.298Z,16.49
2018-10-16T08:15:35.471Z,16.65
2018-10-16T08:18:04.635Z,16.85
2018-10-16T08:20:33.835Z,16.99
2018-10-16T08:23:02.987Z,17.11
2018-10-16T08:25:32.136Z,17.21
2018-10-16T08:28:01.288Z,17.31
2018-10-16T08:30:30.480Z,17.40
2018-10-16T08:32:59.574Z,17.61
2018-10-16T08:35:28.740Z,17.70
2018-10-16T08:40:11.292Z,17.86
2018-10-16T08:43:25.454Z,17.81
2018-10-16T08:46:11.722Z,18.08
2018-10-16T08:48:58.336Z,18.21
2018-10-16T08:51:40.875Z,18.44
2018-10-16T08:54:10.479Z,18.54
2018-10-16T08:56:39.639Z,18.58
2018-10-16T08:59:08.803Z,18.72
2018-10-16T09:01:37.955Z,18.82
2018-10-16T09:04:07.232Z,18.90
2018-10-16T09:06:36.415Z,18.99
2018-10-16T09:09:13.249Z,19.05
2018-10-16T09:11:43.170Z,19.17
2018-10-16T09:14:12.769Z,19.35
2018-10-16T09:16:42.014Z,19.43
2018-10-16T09:19:11.256Z,19.54
2018-10-16T09:21:40.439Z,19.65
2018-10-16T09:24:09.574Z,19.70
2018-10-16T09:26:38.738Z,19.79
2018-10-16T09:29:07.893Z,19.83
2018-10-16T09:31:37.049Z,19.96
2018-10-16T09:34:06.202Z,20.25
2018-10-16T09:36:35.451Z,20.47
2018-10-16T09:39:07.407Z,20.66
2018-10-16T09:41:36.579Z,20.76
2018-10-16T09:44:05.807Z,20.93
2018-10-16T09:46:34.964Z,21.14
2018-10-16T09:49:04.118Z,21.18
2018-10-16T09:51:33.287Z,21.23
2018-10-16T09:54:02.448Z,21.28
2018-10-16T09:56:31.698Z,21.35
2018-10-16T09:59:00.855Z,21.54
2018-10-16T10:01:35.149Z,21.66
2018-10-16T10:04:04.299Z,21.81
2018-10-16T10:06:33.524Z,21.99
2018-10-16T10:09:02.699Z,21.96
2018-10-16T10:11:31.846Z,21.97
2018-10-16T10:14:00.986Z,21.94
2018-10-16T10:16:30.335Z,21.93
2018-10-16T10:18:59.507Z,22.07
2018-10-16T10:21:28.853Z,22.11
2018-10-16T10:23:58.023Z,22.25
2018-10-16T10:26:27.199Z,22.33
2018-10-16T10:28:56.687Z,22.28
2018-10-16T10:31:25.879Z,22.30
2018-10-16T10:33:55.166Z,22.21
2018-10-16T10:36:24.336Z,22.12
2018-10-16T10:38:54.175Z,22.19
2018-10-16T10:41:24.067Z,22.27
2018-10-16T10:43:54.095Z,22.28
2018-10-16T10:46:24.123Z,22.34
2018-10-16T10:48:54.163Z,22.39
2018-10-16T10:51:24.453Z,22.29
2018-10-16T10:53:54.203Z,22.36
2018-10-16T10:56:24.179Z,22.41
2018-10-16T10:58:54.212Z,22.34
2018-10-16T11:01:24.279Z,22.38
2018-10-16T11:03:54.308Z,22.42
2018-10-16T11:06:24.394Z,22.45
2018-10-16T11:08:53.571Z,22.53
2018-10-16T11:16:27.779Z,22.31
2018-10-16T11:18:56.963Z,22.42
2018-10-16T11:21:26.127Z,22.56
2018-10-16T11:23:55.303Z,22.54
2018-10-16T11:26:24.457Z,22.67
2018-10-16T11:28:54.235Z,22.74
2018-10-16T11:31:24.313Z,22.78
2018-10-16T11:33:54.565Z,22.81
2018-10-16T11:36:24.252Z,22.81
2018-10-16T11:38:54.304Z,22.78
2018-10-16T11:41:24.279Z,22.86
2018-10-16T11:43:54.311Z,22.88
2018-10-16T11:46:24.315Z,22.92
2018-10-16T11:48:54.539Z,23.02
2018-10-16T11:51:24.371Z,23.09
2018-10-16T11:53:54.303Z,23.11
2018-10-16T11:56:24.458Z,23.14
2018-10-16T11:58:54.547Z,23.22
2018-10-16T12:01:24.640Z,23.26
2018-10-16T12:03:54.695Z,23.30
2018-10-16T12:06:24.359Z,23.23
2018-10-16T12:08:54.606Z,23.14
2018-10-16T12:11:24.346Z,23.23
2018-10-16T12:13:54.474Z,23.22
2018-10-16T12:16:27.681Z,23.32
2018-10-16T12:19:02.132Z,23.32
2018-10-16T12:21:31.328Z,23.28
2018-10-16T12:24:00.493Z,23.32
2018-10-16T12:26:29.626Z,23.37
2018-10-16T12:28:58.817Z,23.37
2018-10-16T12:31:27.935Z,23.49
2018-10-16T12:33:57.135Z,23.62
2018-10-16T12:36:26.720Z,23.60
2018-10-16T12:38:55.901Z,23.61
2018-10-16T12:41:25.015Z,23.65
2018-10-16T12:43:54.631Z,23.62
2018-10-16T12:46:24.517Z,23.54
2018-10-16T12:48:54.446Z,23.55
2018-10-16T12:51:24.503Z,23.51
2018-10-16T12:53:54.617Z,23.53
2018-10-16T12:56:24.491Z,23.52
2018-10-16T12:58:54.644Z,23.45
2018-10-16T13:01:24.527Z,23.49
2018-10-16T13:03:54.498Z,23.52
2018-10-16T13:06:24.591Z,23.51
2018-10-16T13:08:54.605Z,23.49
2018-10-16T13:11:24.486Z,23.52
2018-10-16T13:13:54.585Z,23.46
2018-10-16T13:16:24.574Z,23.48
2018-10-16T13:18:54.706Z,23.47
2018-10-16T13:21:24.606Z,23.47
2018-10-16T13:23:54.759Z,23.48
2018-10-16T13:26:24.607Z,23.47
2018-10-16T13:28:54.615Z,23.48
2018-10-16T13:31:24.679Z,23.50
2018-10-16T13:33:54.562Z,23.50
2018-10-16T13:36:24.571Z,23.46
2018-10-16T13:38:53.710Z,23.41
2018-10-16T13:41:22.871Z,23.41
2018-10-16T13:43:52.023Z,23.43
2018-10-16T13:46:21.200Z,23.44
2018-10-16T13:48:50.354Z,23.44
2018-10-16T13:51:19.623Z,23.42
2018-10-16T13:53:48.759Z,23.41
2018-10-16T13:56:17.915Z,23.41
2018-10-16T13:58:47.065Z,23.38
2018-10-16T14:01:16.218Z,23.41
2018-10-16T14:03:45.389Z,23.37
2018-10-16T14:06:14.526Z,23.36
2018-10-16T14:08:43.683Z,23.36
2018-10-16T14:11:13.238Z,23.31
2018-10-16T14:13:42.391Z,23.28
2018-10-16T14:21:17.571Z,23.03
2018-10-16T14:23:46.719Z,23.08
2018-10-16T14:26:15.970Z,23.12
2018-10-16T14:28:45.027Z,23.14
2018-10-16T14:31:14.179Z,23.12
2018-10-16T14:33:43.670Z,23.10
2018-10-16T14:36:12.779Z,23.12
2018-10-16T14:38:41.963Z,23.10
2018-10-16T14:41:11.127Z,23.05
2018-10-16T14:43:40.264Z,23.06
2018-10-16T14:46:09.444Z,23.03
2018-10-16T14:48:38.639Z,23.05
2018-10-16T14:51:07.843Z,23.01
2018-10-16T14:53:37.002Z,23.03
2018-10-16T14:56:06.569Z,23.01
2018-10-16T14:58:35.969Z,23.00
2018-10-16T15:01:05.184Z,22.98
2018-10-16T15:03:34.324Z,22.98
2018-10-16T15:06:03.487Z,22.96
2018-10-16T15:08:32.627Z,22.95
2018-10-16T15:11:01.838Z,22.93
2018-10-16T15:13:31.008Z,22.90
2018-10-16T15:16:00.320Z,22.90
2018-10-16T15:18:29.519Z,22.90
2018-10-16T15:20:58.687Z,22.89
2018-10-16T15:23:27.993Z,22.84
2018-10-16T15:25:57.140Z,22.82
2018-10-16T15:28:26.240Z,22.80
2018-10-16T15:30:55.426Z,22.77
2018-10-16T15:33:25.007Z,22.74
2018-10-16T15:35:55.068Z,22.71
2018-10-16T15:38:25.099Z,22.70
2018-10-16T15:40:55.154Z,22.69
2018-10-16T15:43:25.120Z,22.69
2018-10-16T15:45:55.130Z,22.62
2018-10-16T15:48:25.647Z,22.60
2018-10-16T15:50:55.182Z,22.55
2018-10-16T15:53:25.016Z,22.55
2018-10-16T15:55:55.152Z,22.50
2018-10-16T15:58:25.106Z,22.45
2018-10-16T16:00:55.051Z,22.42
2018-10-16T16:03:25.249Z,22.37
2018-10-16T16:05:55.850Z,22.33
2018-10-16T16:08:25.116Z,22.26
2018-10-16T16:10:55.119Z,22.15
2018-10-16T16:13:25.215Z,22.05
2018-10-16T16:15:55.321Z,21.97
2018-10-16T16:18:25.109Z,21.90
2018-10-16T16:20:55.051Z,21.82
2018-10-16T16:23:25.458Z,21.78
2018-10-16T16:25:55.275Z,21.71
2018-10-16T16:28:25.163Z,21.66
2018-10-16T16:30:55.262Z,21.59
2018-10-16T16:33:25.346Z,21.48
2018-10-16T16:35:55.260Z,21.38
2018-10-16T16:38:25.148Z,21.28
2018-10-16T16:40:55.105Z,21.18
2018-10-16T16:43:25.238Z,21.06
2018-10-16T16:45:55.166Z,20.96
2018-10-16T16:48:25.119Z,20.89
2018-10-16T16:50:55.098Z,20.82
2018-10-16T16:53:25.144Z,20.78
2018-10-16T16:55:55.221Z,20.75
2018-10-16T16:58:25.124Z,20.75
2018-10-16T17:00:55.131Z,20.72
2018-10-16T17:03:25.278Z,20.71
2018-10-16T17:05:55.255Z,20.69
2018-10-16T17:08:31.618Z,20.65
2018-10-16T17:11:01.023Z,20.58
2018-10-16T17:13:30.347Z,20.49
2018-10-16T17:15:59.610Z,20.29
2018-10-16T17:18:28.799Z,20.25
2018-10-16T17:20:57.970Z,20.14
2018-10-16T17:23:27.235Z,20.08
2018-10-16T17:25:56.683Z,19.89
2018-10-16T17:28:25.643Z,19.69
2018-10-16T17:30:55.267Z,19.60
2018-10-16T17:33:25.440Z,19.48
2018-10-16T17:35:55.411Z,19.43
2018-10-16T17:38:25.207Z,19.37
2018-10-16T17:40:54.364Z,19.28
2018-10-16T17:43:23.655Z,18.98
2018-10-16T17:45:52.915Z,18.88
2018-10-16T17:48:22.238Z,18.72
2018-10-16T17:50:51.469Z,18.77
2018-10-16T17:53:20.780Z,18.66
2018-10-16T17:55:49.921Z,18.71
2018-10-16T17:58:19.150Z,18.79
2018-10-16T18:00:48.307Z,18.84
2018-10-16T18:03:17.452Z,18.85
2018-10-16T18:05:46.660Z,18.85
2018-10-16T18:08:16.087Z,18.79
2018-10-16T18:10:45.246Z,18.71
2018-10-16T18:13:14.448Z,18.57
2018-10-16T18:15:43.591Z,18.48
2018-10-16T18:18:12.767Z,18.41
2018-10-16T18:20:41.907Z,18.28
2018-10-16T18:23:11.133Z,18.33
2018-10-16T18:25:40.287Z,18.27
2018-10-16T18:28:09.422Z,18.29
2018-10-16T18:30:38.575Z,18.27
2018-10-16T18:33:07.783Z,18.26
2018-10-16T18:35:36.873Z,18.31
2018-10-16T18:38:06.011Z,18.24
2018-10-16T18:40:35.154Z,18.19
2018-10-16T18:43:04.310Z,18.04
2018-10-16T18:45:33.527Z,18.04
2018-10-16T18:48:02.666Z,17.90
2018-10-16T18:50:31.819Z,17.78
2018-10-16T18:53:00.959Z,17.77
2018-10-16T18:55:30.150Z,17.67
2018-10-16T18:57:59.407Z,17.65
2018-10-16T19:00:28.564Z,17.62
2018-10-16T19:02:57.735Z,17.55
2018-10-16T19:05:26.911Z,17.53
2018-10-16T19:07:56.169Z,17.38
2018-10-16T19:10:25.437Z,17.40
2018-10-16T19:12:55.358Z,17.52
2018-10-16T19:15:25.440Z,17.47
2018-10-16T19:17:55.391Z,17.50
2018-10-16T19:20:25.683Z,17.42
2018-10-16T19:22:55.355Z,17.28
2018-10-16T19:25:25.400Z,17.28
2018-10-16T19:27:55.470Z,17.31
2018-10-16T19:30:25.440Z,17.20
2018-10-16T19:32:55.570Z,17.27
2018-10-16T19:35:25.414Z,17.30
2018-10-16T19:37:55.482Z,17.19
2018-10-16T19:40:25.507Z,17.15
2018-10-16T19:42:55.460Z,17.21
2018-10-16T19:45:25.564Z,17.19
2018-10-16T19:47:55.423Z,17.14
2018-10-16T19:50:25.514Z,17.18
2018-10-16T19:52:55.539Z,17.10
2018-10-16T19:55:25.461Z,16.97
2018-10-16T19:57:55.572Z,16.83
2018-10-16T20:00:25.751Z,16.93
2018-10-16T20:02:55.515Z,16.86
2018-10-16T20:05:25.531Z,16.76
2018-10-16T20:07:55.480Z,16.74
2018-10-16T20:10:25.563Z,16.65
2018-10-16T20:12:55.581Z,16.67
2018-10-16T20:15:25.567Z,16.52
2018-10-16T20:17:55.492Z,16.60
2018-10-16T20:20:25.541Z,16.67
2018-10-16T20:22:55.543Z,16.64
2018-10-16T20:25:25.637Z,16.66
2018-10-16T20:27:55.602Z,16.64
2018-10-16T20:30:25.591Z,16.64
2018-10-16T20:32:55.830Z,16.55
2018-10-16T20:35:25.550Z,16.53
2018-10-16T20:37:55.574Z,16.40
2018-10-16T20:40:25.615Z,16.30
2018-10-16T20:42:55.637Z,16.29
2018-10-16T20:45:25.611Z,16.25
2018-10-16T20:47:55.739Z,16.22
2018-10-16T20:50:25.851Z,16.17
2018-10-16T20:52:55.547Z,16.13
2018-10-16T20:55:25.561Z,16.16
2018-10-16T20:57:55.604Z,16.05
2018-10-16T21:00:25.971Z,15.94
2018-10-16T21:02:55.589Z,15.87
2018-10-16T21:05:25.777Z,15.85
2018-10-16T21:07:55.716Z,15.84
2018-10-16T21:10:25.723Z,15.81
2018-10-16T21:12:55.818Z,15.87
2018-10-16T21:15:25.656Z,15.87
2018-10-16T21:17:55.661Z,15.85
2018-10-16T21:20:25.710Z,15.83
2018-10-16T21:22:55.659Z,15.79
2018-10-16T21:25:25.707Z,15.92
2018-10-16T21:27:55.586Z,15.91
2018-10-16T21:30:25.735Z,15.87
2018-10-16T21:32:55.771Z,15.87
2018-10-16T21:35:25.670Z,15.84
2018-10-16T21:37:55.610Z,15.73
2018-10-16T21:40:26.615Z,15.69
2018-10-16T21:42:55.808Z,15.62
2018-10-16T21:45:25.681Z,15.64
2018-10-16T21:47:55.723Z,15.58
2018-10-16T21:50:25.630Z,15.54
2018-10-16T21:52:55.819Z,15.59
2018-10-16T21:55:25.686Z,15.59
2018-10-16T21:57:55.686Z,15.53
2018-10-16T22:00:33.258Z,15.57
2018-10-16T22:03:02.417Z,15.64
2018-10-16T22:05:31.635Z,15.66
2018-10-16T22:08:00.832Z,15.66
2018-10-16T22:10:29.947Z,15.62
2018-10-16T22:12:59.145Z,15.59
2018-10-16T22:15:28.230Z,15.58
2018-10-16T22:17:57.606Z,15.55
2018-10-16T22:20:26.829Z,15.69
2018-10-16T22:22:56.089Z,15.66
2018-10-16T22:25:25.763Z,15.61
2018-10-16T22:27:55.695Z,15.59
2018-10-16T22:30:25.706Z,15.66
2018-10-16T22:32:55.899Z,15.51
2018-10-16T22:35:25.792Z,15.36
2018-10-16T22:37:55.751Z,15.45
2018-10-16T22:40:25.773Z,15.49
2018-10-16T22:42:55.858Z,15.37
2018-10-16T22:45:25.790Z,15.46
2018-10-16T22:47:55.890Z,15.43
2018-10-16T22:50:25.858Z,15.49
2018-10-16T22:52:55.904Z,15.42
2018-10-16T22:55:25.819Z,15.36
2018-10-16T22:57:55.794Z,15.44
2018-10-16T23:00:25.767Z,15.38
2018-10-16T23:02:55.973Z,15.38
2018-10-16T23:05:25.824Z,15.41
2018-10-16T23:07:55.879Z,15.31
2018-10-16T23:10:25.929Z,15.31
2018-10-16T23:13:00.667Z,15.32
2018-10-16T23:15:29.791Z,15.25
2018-10-16T23:17:58.958Z,15.23
2018-10-16T23:20:28.163Z,15.17
2018-10-16T23:22:57.726Z,15.31
2018-10-16T23:25:26.847Z,15.25
2018-10-16T23:27:55.999Z,15.16
2018-10-16T23:30:25.934Z,15.11
2018-10-16T23:32:55.930Z,15.21
2018-10-16T23:35:25.987Z,15.15
2018-10-16T23:37:55.966Z,14.97
2018-10-16T23:40:25.962Z,15.00
2018-10-16T23:42:55.935Z,15.02
2018-10-16T23:45:25.902Z,14.98
2018-10-16T23:47:55.918Z,14.95
2018-10-16T23:50:25.931Z,14.95
2018-10-16T23:52:56.019Z,14.87
2018-10-16T23:55:25.962Z,14.79
2018-10-16T23:57:55.926Z,14.75
